createdAt,value
2022-09-15T00:01:00.970Z,100221.34
2022-09-15T00:03:28.543Z,100220.38
2022-09-15T00:05:55.809Z,100216.50
2022-09-15T00:08:23.477Z,100220.47
2022-09-15T00:10:52.988Z,100220.50
2022-09-15T00:13:21.071Z,100219.06
2022-09-15T00:15:48.694Z,100221.66
2022-09-15T00:18:16.112Z,100220.44
2022-09-15T00:20:45.232Z,100209.19
2022-09-15T00:23:14.220Z,100221.56
2022-09-15T00:25:46.798Z,100217.50
2022-09-15T00:28:15.810Z,100228.50
2022-09-15T00:30:44.868Z,100227.78
2022-09-15T00:33:12.951Z,100218.09
2022-09-15T00:35:41.411Z,100226.69
2022-09-15T00:38:10.303Z,100216.28
2022-09-15T00:40:44.983Z,100222.78
2022-09-15T00:43:12.902Z,100221.53
2022-09-15T00:45:40.696Z,100226.78
2022-09-15T00:48:12.429Z,100232.00
2022-09-15T00:50:41.132Z,100233.41
2022-09-15T00:53:09.953Z,100240.56
2022-09-15T00:55:47.505Z,100239.53
2022-09-15T00:58:21.919Z,100245.34
2022-09-15T01:01:03.271Z,100247.34
2022-09-15T01:03:33.069Z,100259.97
2022-09-15T01:06:05.783Z,100254.44
2022-09-15T01:08:36.168Z,100253.69
2022-09-15T01:11:03.726Z,100259.47
2022-09-15T01:13:30.955Z,100263.19
2022-09-15T01:19:10.377Z,100263.28
2022-09-15T01:21:43.439Z,100278.25
2022-09-15T01:24:16.892Z,100268.84
2022-09-15T01:27:30.450Z,100264.69
2022-09-15T01:30:04.138Z,100262.53
2022-09-15T01:32:53.148Z,100263.38
2022-09-15T01:35:57.826Z,100265.69
2022-09-15T01:38:33.306Z,100269.56
2022-09-15T01:41:05.873Z,100271.94
2022-09-15T01:43:39.364Z,100276.28
2022-09-15T01:46:07.465Z,100277.50
2022-09-15T01:48:35.866Z,100275.19
2022-09-15T01:51:03.971Z,100288.03
2022-09-15T01:53:31.361Z,100278.59
2022-09-15T01:56:02.802Z,100271.69
2022-09-15T01:58:29.995Z,100280.28
2022-09-15T02:01:00.870Z,100273.13
2022-09-15T02:03:35.051Z,100273.03
2022-09-15T02:06:07.237Z,100279.03
2022-09-15T02:08:47.724Z,100287.31
2022-09-15T02:11:21.823Z,100275.34
2022-09-15T02:14:28.328Z,100274.00
2022-09-15T02:16:56.061Z,100278.13
2022-09-15T02:19:41.202Z,100281.31
2022-09-15T02:22:17.568Z,100281.44
2022-09-15T02:24:50.102Z,100286.59
2022-09-15T02:27:24.072Z,100280.59
2022-09-15T02:29:54.058Z,100277.59
2022-09-15T02:32:23.498Z,100277.56
2022-09-15T02:34:51.695Z,100284.47
2022-09-15T02:37:21.319Z,100276.81
2022-09-15T02:39:51.730Z,100274.50
2022-09-15T02:42:26.829Z,100284.00
2022-09-15T02:44:54.130Z,100273.53
2022-09-15T02:47:21.617Z,100282.25
2022-09-15T02:49:48.866Z,100282.09
2022-09-15T02:52:16.400Z,100290.53
2022-09-15T02:54:43.716Z,100284.13
2022-09-15T02:57:10.910Z,100289.13
2022-09-15T03:00:13.308Z,100291.69
2022-09-15T03:02:41.846Z,100284.25
2022-09-15T03:05:10.656Z,100289.09
2022-09-15T03:07:38.512Z,100288.44
2022-09-15T03:10:07.644Z,100289.84
2022-09-15T03:12:54.243Z,100293.84
2022-09-15T03:15:23.625Z,100289.00
2022-09-15T03:17:50.908Z,100289.03
2022-09-15T03:20:23.200Z,100282.81
2022-09-15T03:22:50.417Z,100286.69
2022-09-15T03:25:18.565Z,100284.03
2022-09-15T03:27:46.256Z,100290.06
2022-09-15T03:30:14.059Z,100286.78
2022-09-15T03:32:41.313Z,100290.72
2022-09-15T03:35:09.418Z,100291.22
2022-09-15T03:37:37.205Z,100297.09
2022-09-15T03:40:05.232Z,100296.13
2022-09-15T03:42:32.694Z,100286.78
2022-09-15T03:44:59.926Z,100288.63
2022-09-15T03:47:27.197Z,100286.78
2022-09-15T03:49:55.312Z,100289.97
2022-09-15T03:52:23.882Z,100287.50
2022-09-15T03:54:51.068Z,100293.44
2022-09-15T03:57:18.312Z,100284.84
2022-09-15T03:59:45.480Z,100302.28
2022-09-15T04:02:12.900Z,100288.06
2022-09-15T04:04:40.095Z,100307.06
2022-09-15T04:07:08.818Z,100300.75
2022-09-15T04:09:37.338Z,100304.47
2022-09-15T04:12:04.753Z,100300.13
2022-09-15T04:14:31.983Z,100299.09
2022-09-15T04:16:59.372Z,100308.97
2022-09-15T04:19:26.640Z,100308.53
2022-09-15T04:21:53.900Z,100305.81
2022-09-15T04:24:21.107Z,100312.72
2022-09-15T04:26:48.551Z,100318.13
2022-09-15T04:29:17.466Z,100326.56
2022-09-15T04:31:45.175Z,100329.97
2022-09-15T04:34:12.405Z,100324.50
2022-09-15T04:36:39.657Z,100324.78
2022-09-15T04:39:06.968Z,100329.94
2022-09-15T04:41:34.456Z,100337.63
2022-09-15T04:44:02.382Z,100327.19
2022-09-15T04:46:29.780Z,100337.03
2022-09-15T04:48:57.416Z,100337.94
2022-09-15T04:51:24.960Z,100341.34
2022-09-15T04:53:52.386Z,100344.25
2022-09-15T04:56:22.074Z,100345.25
2022-09-15T04:59:03.214Z,100361.56
2022-09-15T05:01:33.880Z,100356.38
2022-09-15T05:04:05.990Z,100367.53
2022-09-15T05:06:34.703Z,100368.19
2022-09-15T05:09:06.522Z,100366.88
2022-09-15T05:11:37.723Z,100374.69
2022-09-15T05:14:05.057Z,100376.53
2022-09-15T05:16:32.422Z,100380.72
2022-09-15T05:19:02.963Z,100379.22
2022-09-15T05:21:30.815Z,100387.28
2022-09-15T05:23:58.234Z,100385.88
2022-09-15T05:26:28.201Z,100394.22
2022-09-15T05:28:56.563Z,100398.28
2022-09-15T05:31:36.243Z,100392.50
2022-09-15T05:34:05.589Z,100395.13
2022-09-15T05:36:33.613Z,100396.88
2022-09-15T05:39:01.844Z,100403.66
2022-09-15T05:41:29.427Z,100410.81
2022-09-15T05:43:57.764Z,100410.28
2022-09-15T05:46:29.084Z,100410.91
2022-09-15T05:48:58.175Z,100409.13
2022-09-15T05:51:25.484Z,100403.44
2022-09-15T05:53:52.779Z,100406.19
2022-09-15T05:56:20.242Z,100408.34
2022-09-15T05:58:48.245Z,100407.72
2022-09-15T06:01:18.030Z,100407.84
2022-09-15T06:03:45.793Z,100413.44
2022-09-15T06:06:13.541Z,100418.84
2022-09-15T06:08:44.415Z,100424.16
2022-09-15T06:11:23.833Z,100435.06
2022-09-15T06:13:51.095Z,100435.81
2022-09-15T06:16:21.308Z,100435.47
2022-09-15T06:18:49.102Z,100437.41
2022-09-15T06:21:21.136Z,100444.13
2022-09-15T06:23:56.095Z,100440.50
2022-09-15T06:26:23.545Z,100449.09
2022-09-15T06:28:55.559Z,100448.69
2022-09-15T06:31:23.795Z,100450.19
2022-09-15T06:33:54.111Z,100453.78
2022-09-15T06:36:23.075Z,100460.47
2022-09-15T06:38:51.679Z,100467.56
2022-09-15T06:41:18.994Z,100465.50
2022-09-15T06:43:46.878Z,100464.97
2022-09-15T06:46:17.163Z,100466.25
2022-09-15T06:48:48.163Z,100472.72
2022-09-15T06:51:17.496Z,100478.06
2022-09-15T06:53:45.585Z,100480.75
2022-09-15T06:56:15.049Z,100476.94
2022-09-15T06:58:43.075Z,100483.94
2022-09-15T07:01:12.526Z,100485.72
2022-09-15T07:03:42.566Z,100484.03
2022-09-15T07:06:12.064Z,100495.59
2022-09-15T07:08:40.447Z,100488.41
2022-09-15T07:11:09.636Z,100495.75
2022-09-15T07:13:37.379Z,100499.28
2022-09-15T07:16:06.596Z,100493.53
2022-09-15T07:18:35.507Z,100501.03
2022-09-15T07:21:10.455Z,100510.22
2022-09-15T07:23:37.776Z,100503.56
2022-09-15T07:26:15.405Z,100507.22
2022-09-15T07:28:44.853Z,100508.69
2022-09-15T07:31:15.395Z,100509.19
2022-09-15T07:33:45.770Z,100502.94
2022-09-15T07:36:13.277Z,100504.88
2022-09-15T07:38:43.060Z,100509.94
2022-09-15T07:41:25.160Z,100513.88
2022-09-15T07:43:54.506Z,100508.53
2022-09-15T07:46:23.318Z,100522.25
2022-09-15T07:48:53.345Z,100516.22
2022-09-15T07:51:20.846Z,100527.00
2022-09-15T07:53:48.534Z,100524.38
2022-09-15T07:56:19.690Z,100521.16
2022-09-15T07:58:47.697Z,100531.38
2022-09-15T08:01:16.292Z,100528.38
2022-09-15T08:03:46.250Z,100526.03
2022-09-15T08:06:14.410Z,100533.50
2022-09-15T08:08:44.039Z,100535.84
2022-09-15T08:11:18.405Z,100527.53
2022-09-15T08:13:47.704Z,100531.03
2022-09-15T08:16:18.185Z,100535.91
2022-09-15T08:18:45.896Z,100528.78
2022-09-15T08:21:22.642Z,100541.69
2022-09-15T08:23:51.825Z,100536.16
2022-09-15T08:26:19.138Z,100538.44
2022-09-15T08:28:46.424Z,100548.31
2022-09-15T08:31:14.505Z,100558.34
2022-09-15T08:33:45.693Z,100562.34
2022-09-15T08:36:13.805Z,100565.38
2022-09-15T08:38:44.510Z,100561.22
2022-09-15T08:41:20.425Z,100574.94
2022-09-15T08:43:50.039Z,100567.50
2022-09-15T08:46:22.709Z,100583.66
2022-09-15T08:48:58.623Z,100575.72
2022-09-15T08:51:50.110Z,100573.47
2022-09-15T08:54:21.462Z,100575.19
2022-09-15T08:56:49.131Z,100571.09
2022-09-15T08:59:17.593Z,100578.97
2022-09-15T09:01:54.766Z,100581.28
2022-09-15T09:04:43.465Z,100577.09
2022-09-15T09:07:26.131Z,100579.22
2022-09-15T09:09:57.525Z,100578.19
2022-09-15T09:12:43.209Z,100572.16
2022-09-15T09:15:35.021Z,100570.06
2022-09-15T09:18:11.414Z,100578.16
2022-09-15T09:20:41.397Z,100575.81
2022-09-15T09:23:13.074Z,100576.28
2022-09-15T09:25:42.097Z,100578.81
2022-09-15T09:28:39.035Z,100574.88
2022-09-15T09:31:08.311Z,100581.38
2022-09-15T09:33:47.701Z,100580.75
2022-09-15T09:36:15.572Z,100582.88
2022-09-15T09:38:45.675Z,100588.03
2022-09-15T09:41:15.665Z,100583.88
2022-09-15T09:43:44.489Z,100587.47
2022-09-15T09:46:14.980Z,100582.69
2022-09-15T09:49:03.760Z,100572.03
2022-09-15T09:51:39.757Z,100574.94
2022-09-15T09:54:11.962Z,100578.88
2022-09-15T09:56:40.305Z,100584.38
2022-09-15T09:59:39.526Z,100583.00
2022-09-15T10:02:18.208Z,100582.88
2022-09-15T10:04:53.876Z,100591.97
2022-09-15T10:07:27.445Z,100588.56
2022-09-15T10:09:57.439Z,100601.16
2022-09-15T10:12:32.961Z,100596.38
2022-09-15T10:15:03.798Z,100587.00
2022-09-15T10:17:41.015Z,100583.34
2022-09-15T10:20:28.763Z,100581.25
2022-09-15T10:23:29.583Z,100573.31
2022-09-15T10:26:18.243Z,100577.25
2022-09-15T10:28:45.955Z,100573.00
2022-09-15T10:31:28.082Z,100583.00
2022-09-15T10:33:55.374Z,100584.47
2022-09-15T10:36:24.523Z,100572.47
2022-09-15T10:39:21.041Z,100577.91
2022-09-15T10:42:04.459Z,100578.00
2022-09-15T10:44:34.192Z,100581.56
2022-09-15T10:47:53.609Z,100579.00
2022-09-15T10:50:27.511Z,100574.47
2022-09-15T10:53:39.590Z,100576.94
2022-09-15T10:56:35.220Z,100588.03
2022-09-15T10:59:18.778Z,100581.56
2022-09-15T11:02:16.995Z,100581.97
2022-09-15T11:04:53.434Z,100579.09
2022-09-15T11:07:23.622Z,100574.63
2022-09-15T11:09:52.549Z,100571.53
2022-09-15T11:12:48.523Z,100581.25
2022-09-15T11:15:43.322Z,100574.28
2022-09-15T11:18:13.720Z,100564.53
2022-09-15T11:21:02.388Z,100563.78
2022-09-15T11:23:54.756Z,100560.06
2022-09-15T11:26:28.088Z,100555.50
2022-09-15T11:29:16.421Z,100549.31
2022-09-15T11:31:44.990Z,100555.34
2022-09-15T11:34:22.460Z,100549.53
2022-09-15T11:36:55.123Z,100555.94
2022-09-15T11:39:24.051Z,100552.88
2022-09-15T11:41:57.479Z,100550.97
2022-09-15T11:44:28.258Z,100552.56
2022-09-15T11:47:23.275Z,100558.34
2022-09-15T11:49:58.219Z,100555.81
2022-09-15T11:52:46.815Z,100552.84
2022-09-15T11:55:22.801Z,100550.91
2022-09-15T11:58:01.356Z,100558.56
2022-09-15T12:00:28.686Z,100552.50
2022-09-15T12:03:21.043Z,100551.16
2022-09-15T12:05:54.590Z,100555.53
2022-09-15T12:08:24.990Z,100548.69
2022-09-15T12:10:55.420Z,100551.16
2022-09-15T12:13:25.696Z,100550.66
2022-09-15T12:15:53.504Z,100533.97
2022-09-15T12:18:47.683Z,100540.16
2022-09-15T12:21:35.910Z,100539.75
2022-09-15T12:24:22.116Z,100539.34
2022-09-15T12:26:50.284Z,100553.34
2022-09-15T12:29:26.643Z,100539.94
2022-09-15T12:32:20.000Z,100543.75
2022-09-15T12:35:16.417Z,100545.00
2022-09-15T12:37:47.259Z,100536.38
2022-09-15T12:40:34.548Z,100532.75
2022-09-15T12:43:03.898Z,100528.88
2022-09-15T12:45:38.610Z,100534.13
2022-09-15T12:48:12.122Z,100536.91
2022-09-15T12:50:41.030Z,100533.69
2022-09-15T12:53:23.448Z,100534.53
2022-09-15T12:55:55.921Z,100535.31
2022-09-15T12:58:49.793Z,100530.09
2022-09-15T13:01:23.377Z,100532.91
2022-09-15T13:03:50.953Z,100534.94
2022-09-15T13:06:20.975Z,100544.13
2022-09-15T13:08:49.174Z,100537.66
2022-09-15T13:11:36.882Z,100528.81
2022-09-15T13:14:04.249Z,100530.50
2022-09-15T13:16:54.985Z,100532.94
2022-09-15T13:19:27.213Z,100516.34
2022-09-15T13:22:00.016Z,100517.06
2022-09-15T13:24:36.032Z,100525.31
2022-09-15T13:27:05.621Z,100525.28
2022-09-15T13:29:43.409Z,100515.25
2022-09-15T13:32:45.103Z,100516.47
2022-09-15T13:35:27.681Z,100514.88
2022-09-15T13:38:25.001Z,100516.88
2022-09-15T13:41:32.838Z,100523.19
2022-09-15T13:44:07.247Z,100518.78
2022-09-15T13:47:08.788Z,100518.81
2022-09-15T13:49:47.737Z,100522.88
2022-09-15T13:52:22.473Z,100524.78
2022-09-15T13:55:28.001Z,100519.94
2022-09-15T14:00:55.766Z,100511.22
2022-09-15T14:03:33.880Z,100509.63
2022-09-15T14:06:01.330Z,100514.44
2022-09-15T14:08:32.448Z,100511.22
2022-09-15T14:11:03.597Z,100500.78
2022-09-15T14:13:31.453Z,100505.19
2022-09-15T14:16:28.026Z,100498.75
2022-09-15T14:18:57.783Z,100493.56
2022-09-15T14:21:28.230Z,100497.59
2022-09-15T14:23:57.878Z,100491.13
2022-09-15T14:26:27.104Z,100491.09
2022-09-15T14:29:01.156Z,100494.78
2022-09-15T14:31:34.708Z,100496.00
2022-09-15T14:34:04.049Z,100491.97
2022-09-15T14:36:33.199Z,100488.75
2022-09-15T14:39:16.386Z,100490.38
2022-09-15T14:41:44.288Z,100485.56
2022-09-15T14:45:54.993Z,100490.41
2022-09-15T14:47:25.522Z,100497.59
2022-09-15T14:50:10.176Z,100492.00
2022-09-15T14:52:43.241Z,100500.00
2022-09-15T14:55:24.475Z,100507.63
2022-09-15T14:58:30.057Z,100500.41
2022-09-15T15:01:11.744Z,100500.41
2022-09-15T15:03:57.955Z,100520.88
2022-09-15T15:06:29.369Z,100507.56
2022-09-15T15:08:58.326Z,100493.59
2022-09-15T15:11:26.014Z,100505.19
2022-09-15T15:13:53.857Z,100504.81
2022-09-15T15:16:24.558Z,100501.16
2022-09-15T15:18:53.524Z,100496.34
2022-09-15T15:21:42.317Z,100506.41
2022-09-15T15:24:17.392Z,100500.75
2022-09-15T15:26:46.203Z,100507.19
2022-09-15T15:29:38.365Z,100504.34
2022-09-15T15:32:13.629Z,100502.41
2022-09-15T15:34:48.820Z,100505.97
2022-09-15T15:37:26.441Z,100507.25
2022-09-15T15:39:55.558Z,100500.81
2022-09-15T15:42:24.116Z,100506.84
2022-09-15T15:45:09.885Z,100512.84
2022-09-15T15:47:37.413Z,100500.81
2022-09-15T15:50:13.592Z,100509.66
2022-09-15T15:52:42.018Z,100509.25
2022-09-15T15:55:13.782Z,100511.25
2022-09-15T15:57:41.230Z,100520.00
2022-09-15T16:00:30.530Z,100519.56
2022-09-15T16:02:57.852Z,100516.38
2022-09-15T16:05:29.512Z,100513.53
2022-09-15T16:08:00.659Z,100509.97
2022-09-15T16:10:30.343Z,100506.75
2022-09-15T16:12:57.691Z,100510.31
2022-09-15T16:15:25.088Z,100513.56
2022-09-15T16:17:52.258Z,100509.63
2022-09-15T16:20:19.825Z,100506.38
2022-09-15T16:22:47.084Z,100509.59
2022-09-15T16:25:28.088Z,100523.56
2022-09-15T16:27:55.799Z,100509.13
2022-09-15T16:30:23.043Z,100509.94
2022-09-15T16:32:50.412Z,100514.31
2022-09-15T16:35:22.674Z,100513.94
2022-09-15T16:37:50.019Z,100515.19
2022-09-15T16:40:18.072Z,100518.06
2022-09-15T16:42:47.264Z,100515.59
2022-09-15T16:45:22.925Z,100531.16
2022-09-15T16:47:50.113Z,100536.41
2022-09-15T16:50:17.476Z,100532.22
2022-09-15T16:52:44.791Z,100528.66
2022-09-15T16:55:23.379Z,100539.09
2022-09-15T16:57:51.017Z,100538.13
2022-09-15T17:00:18.302Z,100537.41
2022-09-15T17:02:48.938Z,100544.06
2022-09-15T17:05:26.182Z,100548.81
2022-09-15T17:07:53.428Z,100547.22
2022-09-15T17:10:20.930Z,100547.72
2022-09-15T17:12:48.630Z,100550.94
2022-09-15T17:15:20.217Z,100559.75
2022-09-15T17:17:48.061Z,100553.50
2022-09-15T17:20:15.922Z,100562.56
2022-09-15T17:22:43.334Z,100566.69
2022-09-15T17:25:31.359Z,100570.53
2022-09-15T17:27:59.190Z,100566.19
2022-09-15T17:30:29.120Z,100589.09
2022-09-15T17:33:04.298Z,100573.88
2022-09-15T17:35:37.482Z,100585.72
2022-09-15T17:38:06.470Z,100583.94
2022-09-15T17:40:34.844Z,100579.25
2022-09-15T17:43:02.541Z,100585.44
2022-09-15T17:45:36.613Z,100585.50
2022-09-15T17:48:04.648Z,100591.88
2022-09-15T17:50:33.893Z,100596.66
2022-09-15T17:53:01.268Z,100600.72
2022-09-15T17:55:33.457Z,100603.34
2022-09-15T17:58:02.631Z,100607.81
2022-09-15T18:00:33.352Z,100613.66
2022-09-15T18:03:02.849Z,100607.00
2022-09-15T18:05:32.969Z,100613.53
2022-09-15T18:08:03.394Z,100610.94
2022-09-15T18:10:32.052Z,100608.16
2022-09-15T18:12:59.338Z,100612.91
2022-09-15T18:15:29.234Z,100616.09
2022-09-15T18:18:03.845Z,100630.09
2022-09-15T18:20:33.127Z,100624.53
2022-09-15T18:23:00.470Z,100634.47
2022-09-15T18:25:33.724Z,100641.38
2022-09-15T18:28:01.883Z,100638.47
2022-09-15T18:30:36.454Z,100644.19
2022-09-15T18:33:03.947Z,100641.25
2022-09-15T18:35:31.352Z,100640.47
2022-09-15T18:37:59.784Z,100643.09
2022-09-15T18:40:28.288Z,100646.28
2022-09-15T18:42:56.574Z,100648.63
2022-09-15T18:45:23.966Z,100652.50
2022-09-15T18:47:52.310Z,100656.19
2022-09-15T18:50:21.780Z,100661.13
2022-09-15T18:52:49.374Z,100657.78
2022-09-15T18:55:20.195Z,100666.00
2022-09-15T18:57:48.146Z,100652.03
2022-09-15T19:00:17.993Z,100658.97
2022-09-15T19:02:45.446Z,100674.19
2022-09-15T19:05:16.483Z,100667.88
2022-09-15T19:07:44.527Z,100680.75
2022-09-15T19:10:13.161Z,100683.22
2022-09-15T19:12:40.810Z,100680.03
2022-09-15T19:15:12.143Z,100681.16
2022-09-15T19:17:40.576Z,100684.38
2022-09-15T19:20:09.870Z,100686.25
2022-09-15T19:22:38.003Z,100686.75
2022-09-15T19:25:06.576Z,100687.72
2022-09-15T19:27:33.967Z,100690.59
2022-09-15T19:30:01.396Z,100691.16
2022-09-15T19:32:28.879Z,100695.38
2022-09-15T19:34:56.112Z,100698.25
2022-09-15T19:37:23.592Z,100700.38
2022-09-15T19:39:51.282Z,100694.75
2022-09-15T19:42:18.534Z,100704.13
2022-09-15T19:44:47.731Z,100707.66
2022-09-15T19:47:15.379Z,100711.91
2022-09-15T19:49:43.088Z,100723.50
2022-09-15T19:52:10.554Z,100722.59
2022-09-15T19:54:37.863Z,100715.84
2022-09-15T19:57:05.356Z,100727.66
2022-09-15T19:59:32.609Z,100731.31
2022-09-15T20:02:00.804Z,100735.47
2022-09-15T20:07:13.785Z,100739.25
2022-09-15T20:09:40.988Z,100740.94
2022-09-15T20:12:08.163Z,100742.50
2022-09-15T20:14:35.539Z,100738.13
2022-09-15T20:17:02.699Z,100742.78
2022-09-15T20:19:29.896Z,100748.75
2022-09-15T20:21:57.630Z,100752.53
2022-09-15T20:24:25.040Z,100746.09
2022-09-15T20:26:52.447Z,100743.88
2022-09-15T20:29:20.237Z,100751.53
2022-09-15T20:31:48.087Z,100758.34
2022-09-15T20:34:15.841Z,100751.94
2022-09-15T20:36:43.765Z,100746.38
2022-09-15T20:39:14.550Z,100747.72
2022-09-15T20:41:45.170Z,100763.00
2022-09-15T20:44:13.092Z,100759.53
2022-09-15T20:46:40.698Z,100763.13
2022-09-15T20:49:08.951Z,100770.56
2022-09-15T20:51:36.203Z,100769.00
2022-09-15T20:54:04.971Z,100766.03
2022-09-15T20:56:34.992Z,100776.13
2022-09-15T20:59:02.733Z,100769.31
2022-09-15T21:01:34.530Z,100773.19
2022-09-15T21:04:02.281Z,100775.22
2022-09-15T21:06:29.507Z,100778.06
2022-09-15T21:08:57.811Z,100777.81
2022-09-15T21:11:29.640Z,100778.47
2022-09-15T21:13:57.771Z,100772.44
2022-09-15T21:16:27.419Z,100771.25
2022-09-15T21:18:56.387Z,100784.00
2022-09-15T21:21:25.866Z,100792.69
2022-09-15T21:23:55.066Z,100790.97
2022-09-15T21:26:24.816Z,100786.09
2022-09-15T21:28:53.745Z,100789.63
2022-09-15T21:31:22.842Z,100784.56
2022-09-15T21:33:51.374Z,100788.47
2022-09-15T21:36:24.611Z,100782.16
2022-09-15T21:38:53.886Z,100786.28
2022-09-15T21:41:22.922Z,100799.88
2022-09-15T21:43:55.376Z,100791.09
2022-09-15T21:46:24.364Z,100791.59
2022-09-15T21:48:51.809Z,100792.34
2022-09-15T21:51:24.329Z,100796.03
2022-09-15T21:53:56.751Z,100804.59
2022-09-15T21:56:24.703Z,100805.97
2022-09-15T21:58:51.942Z,100803.59
2022-09-15T22:01:20.232Z,100807.75
2022-09-15T22:03:51.985Z,100792.38
2022-09-15T22:06:21.415Z,100799.84
2022-09-15T22:09:45.271Z,100800.47
2022-09-15T22:12:18.819Z,100803.03
2022-09-15T22:14:46.011Z,100805.06
2022-09-15T22:17:13.906Z,100812.31
2022-09-15T22:19:41.179Z,100812.00
2022-09-15T22:22:08.846Z,100810.59
2022-09-15T22:24:36.131Z,100799.78
2022-09-15T22:27:03.390Z,100803.97
2022-09-15T22:29:30.534Z,100804.88
2022-09-15T22:31:57.865Z,100801.44
2022-09-15T22:34:25.054Z,100796.16
2022-09-15T22:36:52.221Z,100796.13
2022-09-15T22:39:19.360Z,100800.38
2022-09-15T22:41:46.674Z,100801.97
2022-09-15T22:44:18.865Z,100812.81
2022-09-15T22:46:46.377Z,100801.75
2022-09-15T22:49:13.592Z,100801.28
2022-09-15T22:51:40.891Z,100792.13
2022-09-15T22:54:08.102Z,100802.03
2022-09-15T22:56:35.334Z,100795.91
2022-09-15T22:59:02.795Z,100786.31
2022-09-15T23:01:31.097Z,100792.03
2022-09-15T23:04:00.886Z,100792.03
2022-09-15T23:06:30.796Z,100795.09
2022-09-15T23:08:59.979Z,100795.81
2022-09-15T23:11:28.532Z,100788.34
2022-09-15T23:13:56.418Z,100793.91
2022-09-15T23:16:25.008Z,100791.22
2022-09-15T23:18:53.095Z,100795.03
2022-09-15T23:21:20.954Z,100797.97
2022-09-15T23:23:49.247Z,100788.19
2022-09-15T23:26:18.365Z,100787.78
2022-09-15T23:28:45.861Z,100786.56
2022-09-15T23:31:13.695Z,100787.66
2022-09-15T23:33:41.600Z,100788.78
2022-09-15T23:36:11.676Z,100781.09
2022-09-15T23:38:41.040Z,100782.16
2022-09-15T23:41:08.967Z,100792.63
2022-09-15T23:43:36.309Z,100790.97
2022-09-15T23:46:04.570Z,100793.16
2022-09-15T23:48:32.534Z,100786.00
2022-09-15T23:51:00.021Z,100789.34
2022-09-15T23:53:27.397Z,100790.59
2022-09-15T23:55:54.676Z,100786.00
2022-09-15T23:58:21.900Z,100788.59
